<?xml version="1.0" encoding="UTF-8" standalone="no" ?>
<gpx xmlns="http://www.topografix.com/GPX/1/1" xmlns:xsi="http://www.w3.org/2001/XMLSchema-instance" xsi:schemaLocation="http://www.topografix.com/GPX/1/1 http://www.topografix.com/GPX/1/1/gpx.xsd" version="1.1" creator="VisuGPX - https://www.visugpx.com">
  <metadata>
    <name>Trail-Taninges</name>
  </metadata>
  <trk>
    <name><![CDATA[14956043-Parcours trail ]]></name>
    <extensions>
      <line xmlns="http://www.topografix.com/GPX/gpx_style/0/2">
        <color>0000FF</color>
        <width>4</width>
      </line>
    </extensions>
    <trkseg>
      <trkpt lat="46.0986" lon="6.5884">
        <ele>623</ele>
        <time>2022-06-13T13:36:03Z</time>
      </trkpt>
      <trkpt lat="46.09847" lon="6.58977">
        <ele>622</ele>
        <time>2022-06-13T13:36:51Z</time>
      </trkpt>
      <trkpt lat="46.09746" lon="6.5897">
        <ele>621</ele>
        <time>2022-06-13T13:37:42Z</time>
      </trkpt>
      <trkpt lat="46.09737" lon="6.58672">
        <ele>623</ele>
        <time>2022-06-13T13:39:25Z</time>
      </trkpt>
      <trkpt lat="46.09742" lon="6.58407">
        <ele>621</ele>
        <time>2022-06-13T13:40:57Z</time>
      </trkpt>
      <trkpt lat="46.09826" lon="6.58527">
        <ele>625</ele>
        <time>2022-06-13T13:41:56Z</time>
      </trkpt>
      <trkpt lat="46.09943" lon="6.58609">
        <ele>625</ele>
        <time>2022-06-13T13:43:01Z</time>
      </trkpt>
      <trkpt lat="46.10083" lon="6.58613">
        <ele>627</ele>
        <time>2022-06-13T13:44:11Z</time>
      </trkpt>
      <trkpt lat="46.10098" lon="6.58621">
        <ele>627</ele>
        <time>2022-06-13T13:44:19Z</time>
      </trkpt>
      <trkpt lat="46.10098" lon="6.58619">
        <ele>627</ele>
        <time>2022-06-13T13:44:20Z</time>
      </trkpt>
      <trkpt lat="46.10119" lon="6.58578">
        <ele>627</ele>
        <time>2022-06-13T13:44:38Z</time>
      </trkpt>
      <trkpt lat="46.1013" lon="6.58574">
        <ele>628</ele>
        <time>2022-06-13T13:44:43Z</time>
      </trkpt>
      <trkpt lat="46.10102" lon="6.58524">
        <ele>628</ele>
        <time>2022-06-13T13:45:06Z</time>
      </trkpt>
      <trkpt lat="46.10025" lon="6.58387">
        <ele>629</ele>
        <time>2022-06-13T13:46:07Z</time>
      </trkpt>
      <trkpt lat="46.10067" lon="6.58219">
        <ele>625</ele>
        <time>2022-06-13T13:47:09Z</time>
      </trkpt>
      <trkpt lat="46.1007" lon="6.58202">
        <ele>624</ele>
        <time>2022-06-13T13:47:15Z</time>
      </trkpt>
      <trkpt lat="46.10084" lon="6.58192">
        <ele>624</ele>
        <time>2022-06-13T13:47:23Z</time>
      </trkpt>
      <trkpt lat="46.101" lon="6.58155">
        <ele>622</ele>
        <time>2022-06-13T13:47:38Z</time>
      </trkpt>
      <trkpt lat="46.10155" lon="6.58126">
        <ele>621</ele>
        <time>2022-06-13T13:48:07Z</time>
      </trkpt>
      <trkpt lat="46.1019" lon="6.5809">
        <ele>620</ele>
        <time>2022-06-13T13:48:29Z</time>
      </trkpt>
      <trkpt lat="46.10245" lon="6.58061">
        <ele>621</ele>
        <time>2022-06-13T13:48:58Z</time>
      </trkpt>
      <trkpt lat="46.10258" lon="6.58038">
        <ele>621</ele>
        <time>2022-06-13T13:49:08Z</time>
      </trkpt>
      <trkpt lat="46.10291" lon="6.57953">
        <ele>620</ele>
        <time>2022-06-13T13:49:42Z</time>
      </trkpt>
      <trkpt lat="46.10312" lon="6.57887">
        <ele>621</ele>
        <time>2022-06-13T13:50:07Z</time>
      </trkpt>
      <trkpt lat="46.1033" lon="6.57854">
        <ele>621</ele>
        <time>2022-06-13T13:50:22Z</time>
      </trkpt>
      <trkpt lat="46.10364" lon="6.57806">
        <ele>620</ele>
        <time>2022-06-13T13:50:46Z</time>
      </trkpt>
      <trkpt lat="46.10373" lon="6.57798">
        <ele>619</ele>
        <time>2022-06-13T13:50:51Z</time>
      </trkpt>
      <trkpt lat="46.10384" lon="6.57796">
        <ele>619</ele>
        <time>2022-06-13T13:50:57Z</time>
      </trkpt>
      <trkpt lat="46.10381" lon="6.57785">
        <ele>619</ele>
        <time>2022-06-13T13:51:01Z</time>
      </trkpt>
      <trkpt lat="46.10367" lon="6.57625">
        <ele>617</ele>
        <time>2022-06-13T13:51:57Z</time>
      </trkpt>
      <trkpt lat="46.10369" lon="6.57614">
        <ele>617</ele>
        <time>2022-06-13T13:52:01Z</time>
      </trkpt>
      <trkpt lat="46.10358" lon="6.57592">
        <ele>616</ele>
        <time>2022-06-13T13:52:10Z</time>
      </trkpt>
      <trkpt lat="46.10343" lon="6.57586">
        <ele>615</ele>
        <time>2022-06-13T13:52:18Z</time>
      </trkpt>
      <trkpt lat="46.1032" lon="6.57587">
        <ele>615</ele>
        <time>2022-06-13T13:52:29Z</time>
      </trkpt>
      <trkpt lat="46.10301" lon="6.57581">
        <ele>615</ele>
        <time>2022-06-13T13:52:39Z</time>
      </trkpt>
      <trkpt lat="46.10345" lon="6.57454">
        <ele>615</ele>
        <time>2022-06-13T13:53:28Z</time>
      </trkpt>
      <trkpt lat="46.10364" lon="6.57371">
        <ele>616</ele>
        <time>2022-06-13T13:53:59Z</time>
      </trkpt>
      <trkpt lat="46.10364" lon="6.57327">
        <ele>616</ele>
        <time>2022-06-13T13:54:14Z</time>
      </trkpt>
      <trkpt lat="46.10366" lon="6.57324">
        <ele>616</ele>
        <time>2022-06-13T13:54:15Z</time>
      </trkpt>
      <trkpt lat="46.10382" lon="6.57301">
        <ele>616</ele>
        <time>2022-06-13T13:54:27Z</time>
      </trkpt>
      <trkpt lat="46.10449" lon="6.57339">
        <ele>618</ele>
        <time>2022-06-13T13:55:03Z</time>
      </trkpt>
      <trkpt lat="46.10533" lon="6.57358">
        <ele>620</ele>
        <time>2022-06-13T13:55:45Z</time>
      </trkpt>
      <trkpt lat="46.10557" lon="6.57368">
        <ele>620</ele>
        <time>2022-06-13T13:55:58Z</time>
      </trkpt>
      <trkpt lat="46.10622" lon="6.57372">
        <ele>621</ele>
        <time>2022-06-13T13:56:30Z</time>
      </trkpt>
      <trkpt lat="46.10639" lon="6.5737">
        <ele>621</ele>
        <time>2022-06-13T13:56:39Z</time>
      </trkpt>
      <trkpt lat="46.10661" lon="6.57384">
        <ele>622</ele>
        <time>2022-06-13T13:56:51Z</time>
      </trkpt>
      <trkpt lat="46.10675" lon="6.57385">
        <ele>622</ele>
        <time>2022-06-13T13:56:58Z</time>
      </trkpt>
      <trkpt lat="46.10695" lon="6.57373">
        <ele>622</ele>
        <time>2022-06-13T13:57:09Z</time>
      </trkpt>
      <trkpt lat="46.10712" lon="6.57358">
        <ele>622</ele>
        <time>2022-06-13T13:57:19Z</time>
      </trkpt>
      <trkpt lat="46.10726" lon="6.57356">
        <ele>622</ele>
        <time>2022-06-13T13:57:26Z</time>
      </trkpt>
      <trkpt lat="46.10755" lon="6.57356">
        <ele>622</ele>
        <time>2022-06-13T13:57:40Z</time>
      </trkpt>
      <trkpt lat="46.1077" lon="6.57379">
        <ele>622</ele>
        <time>2022-06-13T13:57:51Z</time>
      </trkpt>
      <trkpt lat="46.10808" lon="6.57303">
        <ele>622</ele>
        <time>2022-06-13T13:58:24Z</time>
      </trkpt>
      <trkpt lat="46.10837" lon="6.57302">
        <ele>622</ele>
        <time>2022-06-13T13:58:38Z</time>
      </trkpt>
      <trkpt lat="46.10837" lon="6.5729">
        <ele>622</ele>
        <time>2022-06-13T13:58:42Z</time>
      </trkpt>
      <trkpt lat="46.10843" lon="6.57288">
        <ele>622</ele>
        <time>2022-06-13T13:58:45Z</time>
      </trkpt>
      <trkpt lat="46.10876" lon="6.57272">
        <ele>624</ele>
        <time>2022-06-13T13:59:03Z</time>
      </trkpt>
      <trkpt lat="46.1088" lon="6.57266">
        <ele>625</ele>
        <time>2022-06-13T13:59:06Z</time>
      </trkpt>
      <trkpt lat="46.10884" lon="6.57255">
        <ele>625</ele>
        <time>2022-06-13T13:59:10Z</time>
      </trkpt>
      <trkpt lat="46.10886" lon="6.57236">
        <ele>625</ele>
        <time>2022-06-13T13:59:17Z</time>
      </trkpt>
      <trkpt lat="46.10884" lon="6.57214">
        <ele>624</ele>
        <time>2022-06-13T13:59:24Z</time>
      </trkpt>
      <trkpt lat="46.10886" lon="6.57147">
        <ele>623</ele>
        <time>2022-06-13T13:59:48Z</time>
      </trkpt>
      <trkpt lat="46.1089" lon="6.57124">
        <ele>622</ele>
        <time>2022-06-13T13:59:56Z</time>
      </trkpt>
      <trkpt lat="46.10904" lon="6.57092">
        <ele>622</ele>
        <time>2022-06-13T14:00:09Z</time>
      </trkpt>
      <trkpt lat="46.1092" lon="6.57065">
        <ele>622</ele>
        <time>2022-06-13T14:00:21Z</time>
      </trkpt>
      <trkpt lat="46.10941" lon="6.57038">
        <ele>628</ele>
        <time>2022-06-13T14:00:35Z</time>
      </trkpt>
      <trkpt lat="46.10945" lon="6.57026">
        <ele>629</ele>
        <time>2022-06-13T14:00:40Z</time>
      </trkpt>
      <trkpt lat="46.10948" lon="6.56986">
        <ele>629</ele>
        <time>2022-06-13T14:00:54Z</time>
      </trkpt>
      <trkpt lat="46.10952" lon="6.56971">
        <ele>629</ele>
        <time>2022-06-13T14:01:00Z</time>
      </trkpt>
      <trkpt lat="46.10963" lon="6.56955">
        <ele>631</ele>
        <time>2022-06-13T14:01:07Z</time>
      </trkpt>
      <trkpt lat="46.11023" lon="6.56859">
        <ele>635</ele>
        <time>2022-06-13T14:01:52Z</time>
      </trkpt>
      <trkpt lat="46.11065" lon="6.56822">
        <ele>643</ele>
        <time>2022-06-13T14:02:17Z</time>
      </trkpt>
      <trkpt lat="46.11103" lon="6.56768">
        <ele>640</ele>
        <time>2022-06-13T14:02:44Z</time>
      </trkpt>
      <trkpt lat="46.11134" lon="6.56741">
        <ele>644</ele>
        <time>2022-06-13T14:03:02Z</time>
      </trkpt>
      <trkpt lat="46.11177" lon="6.56708">
        <ele>648</ele>
        <time>2022-06-13T14:03:26Z</time>
      </trkpt>
      <trkpt lat="46.11182" lon="6.56699">
        <ele>646</ele>
        <time>2022-06-13T14:03:30Z</time>
      </trkpt>
      <trkpt lat="46.11193" lon="6.56633">
        <ele>632</ele>
        <time>2022-06-13T14:03:54Z</time>
      </trkpt>
      <trkpt lat="46.11193" lon="6.56618">
        <ele>629</ele>
        <time>2022-06-13T14:03:59Z</time>
      </trkpt>
      <trkpt lat="46.11183" lon="6.56573">
        <ele>623</ele>
        <time>2022-06-13T14:04:15Z</time>
      </trkpt>
      <trkpt lat="46.11184" lon="6.5655">
        <ele>622</ele>
        <time>2022-06-13T14:04:23Z</time>
      </trkpt>
      <trkpt lat="46.11186" lon="6.56543">
        <ele>622</ele>
        <time>2022-06-13T14:04:26Z</time>
      </trkpt>
      <trkpt lat="46.11202" lon="6.56525">
        <ele>623</ele>
        <time>2022-06-13T14:04:36Z</time>
      </trkpt>
      <trkpt lat="46.11212" lon="6.56519">
        <ele>623</ele>
        <time>2022-06-13T14:04:41Z</time>
      </trkpt>
      <trkpt lat="46.11222" lon="6.56518">
        <ele>624</ele>
        <time>2022-06-13T14:04:46Z</time>
      </trkpt>
      <trkpt lat="46.1124" lon="6.56521">
        <ele>626</ele>
        <time>2022-06-13T14:04:56Z</time>
      </trkpt>
      <trkpt lat="46.11251" lon="6.5652">
        <ele>628</ele>
        <time>2022-06-13T14:05:01Z</time>
      </trkpt>
      <trkpt lat="46.11295" lon="6.56506">
        <ele>634</ele>
        <time>2022-06-13T14:05:24Z</time>
      </trkpt>
      <trkpt lat="46.11297" lon="6.56503">
        <ele>634</ele>
        <time>2022-06-13T14:05:25Z</time>
      </trkpt>
      <trkpt lat="46.11299" lon="6.56492">
        <ele>634</ele>
        <time>2022-06-13T14:05:29Z</time>
      </trkpt>
      <trkpt lat="46.11313" lon="6.56486">
        <ele>637</ele>
        <time>2022-06-13T14:05:36Z</time>
      </trkpt>
      <trkpt lat="46.11342" lon="6.56478">
        <ele>644</ele>
        <time>2022-06-13T14:05:51Z</time>
      </trkpt>
      <trkpt lat="46.11356" lon="6.56479">
        <ele>649</ele>
        <time>2022-06-13T14:05:58Z</time>
      </trkpt>
      <trkpt lat="46.11367" lon="6.56479">
        <ele>653</ele>
        <time>2022-06-13T14:06:04Z</time>
      </trkpt>
      <trkpt lat="46.11413" lon="6.56457">
        <ele>669</ele>
        <time>2022-06-13T14:06:28Z</time>
      </trkpt>
      <trkpt lat="46.11472" lon="6.56371">
        <ele>678</ele>
        <time>2022-06-13T14:07:10Z</time>
      </trkpt>
      <trkpt lat="46.11497" lon="6.56345">
        <ele>683</ele>
        <time>2022-06-13T14:07:25Z</time>
      </trkpt>
      <trkpt lat="46.11525" lon="6.56333">
        <ele>686</ele>
        <time>2022-06-13T14:07:40Z</time>
      </trkpt>
      <trkpt lat="46.11556" lon="6.56338">
        <ele>690</ele>
        <time>2022-06-13T14:07:55Z</time>
      </trkpt>
      <trkpt lat="46.11559" lon="6.56335">
        <ele>690</ele>
        <time>2022-06-13T14:07:57Z</time>
      </trkpt>
      <trkpt lat="46.11568" lon="6.56334">
        <ele>691</ele>
        <time>2022-06-13T14:08:02Z</time>
      </trkpt>
      <trkpt lat="46.11601" lon="6.56346">
        <ele>696</ele>
        <time>2022-06-13T14:08:19Z</time>
      </trkpt>
      <trkpt lat="46.1162" lon="6.56349">
        <ele>698</ele>
        <time>2022-06-13T14:08:28Z</time>
      </trkpt>
      <trkpt lat="46.11637" lon="6.56347">
        <ele>700</ele>
        <time>2022-06-13T14:08:37Z</time>
      </trkpt>
      <trkpt lat="46.11658" lon="6.5633">
        <ele>704</ele>
        <time>2022-06-13T14:08:49Z</time>
      </trkpt>
      <trkpt lat="46.11688" lon="6.56321">
        <ele>709</ele>
        <time>2022-06-13T14:09:04Z</time>
      </trkpt>
      <trkpt lat="46.11707" lon="6.56301">
        <ele>713</ele>
        <time>2022-06-13T14:09:16Z</time>
      </trkpt>
      <trkpt lat="46.1171" lon="6.56295">
        <ele>713</ele>
        <time>2022-06-13T14:09:19Z</time>
      </trkpt>
      <trkpt lat="46.11712" lon="6.56287">
        <ele>714</ele>
        <time>2022-06-13T14:09:22Z</time>
      </trkpt>
      <trkpt lat="46.11718" lon="6.56238">
        <ele>718</ele>
        <time>2022-06-13T14:09:39Z</time>
      </trkpt>
      <trkpt lat="46.11725" lon="6.56214">
        <ele>723</ele>
        <time>2022-06-13T14:09:48Z</time>
      </trkpt>
      <trkpt lat="46.11743" lon="6.56184">
        <ele>724</ele>
        <time>2022-06-13T14:10:02Z</time>
      </trkpt>
      <trkpt lat="46.11831" lon="6.56036">
        <ele>733</ele>
        <time>2022-06-13T14:11:09Z</time>
      </trkpt>
      <trkpt lat="46.11886" lon="6.55954">
        <ele>736</ele>
        <time>2022-06-13T14:11:49Z</time>
      </trkpt>
      <trkpt lat="46.11949" lon="6.55828">
        <ele>737</ele>
        <time>2022-06-13T14:12:43Z</time>
      </trkpt>
      <trkpt lat="46.12014" lon="6.55728">
        <ele>741</ele>
        <time>2022-06-13T14:13:30Z</time>
      </trkpt>
      <trkpt lat="46.12023" lon="6.55715">
        <ele>743</ele>
        <time>2022-06-13T14:13:37Z</time>
      </trkpt>
      <trkpt lat="46.12025" lon="6.55715">
        <ele>743</ele>
        <time>2022-06-13T14:13:38Z</time>
      </trkpt>
      <trkpt lat="46.12042" lon="6.55689">
        <ele>744</ele>
        <time>2022-06-13T14:13:50Z</time>
      </trkpt>
      <trkpt lat="46.12061" lon="6.55667">
        <ele>741</ele>
        <time>2022-06-13T14:14:02Z</time>
      </trkpt>
      <trkpt lat="46.12069" lon="6.55645">
        <ele>741</ele>
        <time>2022-06-13T14:14:11Z</time>
      </trkpt>
      <trkpt lat="46.12082" lon="6.55628">
        <ele>738</ele>
        <time>2022-06-13T14:14:20Z</time>
      </trkpt>
      <trkpt lat="46.12095" lon="6.55615">
        <ele>738</ele>
        <time>2022-06-13T14:14:28Z</time>
      </trkpt>
      <trkpt lat="46.12101" lon="6.55605">
        <ele>738</ele>
        <time>2022-06-13T14:14:32Z</time>
      </trkpt>
      <trkpt lat="46.12105" lon="6.55565">
        <ele>739</ele>
        <time>2022-06-13T14:14:46Z</time>
      </trkpt>
      <trkpt lat="46.12101" lon="6.55522">
        <ele>742</ele>
        <time>2022-06-13T14:15:01Z</time>
      </trkpt>
      <trkpt lat="46.12106" lon="6.55464">
        <ele>739</ele>
        <time>2022-06-13T14:15:22Z</time>
      </trkpt>
      <trkpt lat="46.12112" lon="6.55447">
        <ele>737</ele>
        <time>2022-06-13T14:15:28Z</time>
      </trkpt>
      <trkpt lat="46.12116" lon="6.5542">
        <ele>734</ele>
        <time>2022-06-13T14:15:38Z</time>
      </trkpt>
      <trkpt lat="46.12127" lon="6.55386">
        <ele>727</ele>
        <time>2022-06-13T14:15:51Z</time>
      </trkpt>
      <trkpt lat="46.12138" lon="6.5537">
        <ele>723</ele>
        <time>2022-06-13T14:15:59Z</time>
      </trkpt>
      <trkpt lat="46.12141" lon="6.5534">
        <ele>718</ele>
        <time>2022-06-13T14:16:09Z</time>
      </trkpt>
      <trkpt lat="46.12145" lon="6.5533">
        <ele>716</ele>
        <time>2022-06-13T14:16:13Z</time>
      </trkpt>
      <trkpt lat="46.1215" lon="6.55321">
        <ele>714</ele>
        <time>2022-06-13T14:16:17Z</time>
      </trkpt>
      <trkpt lat="46.12158" lon="6.55312">
        <ele>713</ele>
        <time>2022-06-13T14:16:22Z</time>
      </trkpt>
      <trkpt lat="46.12166" lon="6.55305">
        <ele>712</ele>
        <time>2022-06-13T14:16:27Z</time>
      </trkpt>
      <trkpt lat="46.12176" lon="6.55293">
        <ele>711</ele>
        <time>2022-06-13T14:16:33Z</time>
      </trkpt>
      <trkpt lat="46.12183" lon="6.55273">
        <ele>709</ele>
        <time>2022-06-13T14:16:41Z</time>
      </trkpt>
      <trkpt lat="46.122" lon="6.55247">
        <ele>708</ele>
        <time>2022-06-13T14:16:54Z</time>
      </trkpt>
      <trkpt lat="46.12206" lon="6.55242">
        <ele>709</ele>
        <time>2022-06-13T14:16:57Z</time>
      </trkpt>
      <trkpt lat="46.1222" lon="6.55237">
        <ele>711</ele>
        <time>2022-06-13T14:17:04Z</time>
      </trkpt>
      <trkpt lat="46.12229" lon="6.55244">
        <ele>714</ele>
        <time>2022-06-13T14:17:09Z</time>
      </trkpt>
      <trkpt lat="46.12249" lon="6.55254">
        <ele>720</ele>
        <time>2022-06-13T14:17:20Z</time>
      </trkpt>
      <trkpt lat="46.12257" lon="6.55252">
        <ele>722</ele>
        <time>2022-06-13T14:17:24Z</time>
      </trkpt>
      <trkpt lat="46.12266" lon="6.55244">
        <ele>724</ele>
        <time>2022-06-13T14:17:29Z</time>
      </trkpt>
      <trkpt lat="46.12279" lon="6.55215">
        <ele>723</ele>
        <time>2022-06-13T14:17:41Z</time>
      </trkpt>
      <trkpt lat="46.12283" lon="6.5521">
        <ele>723</ele>
        <time>2022-06-13T14:17:44Z</time>
      </trkpt>
      <trkpt lat="46.12297" lon="6.55204">
        <ele>726</ele>
        <time>2022-06-13T14:17:51Z</time>
      </trkpt>
      <trkpt lat="46.12283" lon="6.55221">
        <ele>725</ele>
        <time>2022-06-13T14:18:00Z</time>
      </trkpt>
      <trkpt lat="46.12278" lon="6.55232">
        <ele>725</ele>
        <time>2022-06-13T14:18:05Z</time>
      </trkpt>
      <trkpt lat="46.12277" lon="6.55244">
        <ele>727</ele>
        <time>2022-06-13T14:18:09Z</time>
      </trkpt>
      <trkpt lat="46.12279" lon="6.55249">
        <ele>729</ele>
        <time>2022-06-13T14:18:11Z</time>
      </trkpt>
      <trkpt lat="46.12286" lon="6.55254">
        <ele>732</ele>
        <time>2022-06-13T14:18:15Z</time>
      </trkpt>
      <trkpt lat="46.1229" lon="6.55254">
        <ele>733</ele>
        <time>2022-06-13T14:18:17Z</time>
      </trkpt>
      <trkpt lat="46.12298" lon="6.55246">
        <ele>734</ele>
        <time>2022-06-13T14:18:22Z</time>
      </trkpt>
      <trkpt lat="46.12314" lon="6.55214">
        <ele>733</ele>
        <time>2022-06-13T14:18:36Z</time>
      </trkpt>
      <trkpt lat="46.12376" lon="6.55107">
        <ele>736</ele>
        <time>2022-06-13T14:19:24Z</time>
      </trkpt>
      <trkpt lat="46.1238" lon="6.55099">
        <ele>735</ele>
        <time>2022-06-13T14:19:27Z</time>
      </trkpt>
      <trkpt lat="46.12395" lon="6.55042">
        <ele>737</ele>
        <time>2022-06-13T14:19:49Z</time>
      </trkpt>
      <trkpt lat="46.12386" lon="6.54964">
        <ele>733</ele>
        <time>2022-06-13T14:20:16Z</time>
      </trkpt>
      <trkpt lat="46.12387" lon="6.54949">
        <ele>733</ele>
        <time>2022-06-13T14:20:21Z</time>
      </trkpt>
      <trkpt lat="46.1239" lon="6.54931">
        <ele>734</ele>
        <time>2022-06-13T14:20:28Z</time>
      </trkpt>
      <trkpt lat="46.12394" lon="6.54917">
        <ele>735</ele>
        <time>2022-06-13T14:20:33Z</time>
      </trkpt>
      <trkpt lat="46.12397" lon="6.54914">
        <ele>736</ele>
        <time>2022-06-13T14:20:35Z</time>
      </trkpt>
      <trkpt lat="46.12405" lon="6.54911">
        <ele>738</ele>
        <time>2022-06-13T14:20:39Z</time>
      </trkpt>
      <trkpt lat="46.12414" lon="6.54915">
        <ele>740</ele>
        <time>2022-06-13T14:20:44Z</time>
      </trkpt>
      <trkpt lat="46.12418" lon="6.54927">
        <ele>741</ele>
        <time>2022-06-13T14:20:48Z</time>
      </trkpt>
      <trkpt lat="46.12417" lon="6.54962">
        <ele>742</ele>
        <time>2022-06-13T14:21:00Z</time>
      </trkpt>
      <trkpt lat="46.12436" lon="6.55004">
        <ele>747</ele>
        <time>2022-06-13T14:21:18Z</time>
      </trkpt>
      <trkpt lat="46.12445" lon="6.55077">
        <ele>755</ele>
        <time>2022-06-13T14:21:43Z</time>
      </trkpt>
      <trkpt lat="46.12445" lon="6.55093">
        <ele>758</ele>
        <time>2022-06-13T14:21:49Z</time>
      </trkpt>
      <trkpt lat="46.12444" lon="6.551">
        <ele>759</ele>
        <time>2022-06-13T14:21:51Z</time>
      </trkpt>
      <trkpt lat="46.1243" lon="6.55132">
        <ele>761</ele>
        <time>2022-06-13T14:22:05Z</time>
      </trkpt>
      <trkpt lat="46.12426" lon="6.55147">
        <ele>762</ele>
        <time>2022-06-13T14:22:10Z</time>
      </trkpt>
      <trkpt lat="46.12426" lon="6.55162">
        <ele>766</ele>
        <time>2022-06-13T14:22:15Z</time>
      </trkpt>
      <trkpt lat="46.12432" lon="6.55171">
        <ele>770</ele>
        <time>2022-06-13T14:22:20Z</time>
      </trkpt>
      <trkpt lat="46.12436" lon="6.55174">
        <ele>772</ele>
        <time>2022-06-13T14:22:22Z</time>
      </trkpt>
      <trkpt lat="46.12431" lon="6.55188">
        <ele>771</ele>
        <time>2022-06-13T14:22:27Z</time>
      </trkpt>
      <trkpt lat="46.12406" lon="6.55227">
        <ele>765</ele>
        <time>2022-06-13T14:22:46Z</time>
      </trkpt>
      <trkpt lat="46.12403" lon="6.55234">
        <ele>765</ele>
        <time>2022-06-13T14:22:49Z</time>
      </trkpt>
      <trkpt lat="46.12392" lon="6.55278">
        <ele>766</ele>
        <time>2022-06-13T14:23:05Z</time>
      </trkpt>
      <trkpt lat="46.12388" lon="6.55296">
        <ele>766</ele>
        <time>2022-06-13T14:23:11Z</time>
      </trkpt>
      <trkpt lat="46.12386" lon="6.55352">
        <ele>770</ele>
        <time>2022-06-13T14:23:31Z</time>
      </trkpt>
      <trkpt lat="46.12395" lon="6.55431">
        <ele>777</ele>
        <time>2022-06-13T14:23:59Z</time>
      </trkpt>
      <trkpt lat="46.12393" lon="6.55479">
        <ele>779</ele>
        <time>2022-06-13T14:24:15Z</time>
      </trkpt>
      <trkpt lat="46.12397" lon="6.5552">
        <ele>782</ele>
        <time>2022-06-13T14:24:30Z</time>
      </trkpt>
      <trkpt lat="46.12391" lon="6.55569">
        <ele>784</ele>
        <time>2022-06-13T14:24:47Z</time>
      </trkpt>
      <trkpt lat="46.12387" lon="6.5557">
        <ele>783</ele>
        <time>2022-06-13T14:24:49Z</time>
      </trkpt>
      <trkpt lat="46.1238" lon="6.55582">
        <ele>781</ele>
        <time>2022-06-13T14:24:54Z</time>
      </trkpt>
      <trkpt lat="46.12374" lon="6.55591">
        <ele>780</ele>
        <time>2022-06-13T14:24:59Z</time>
      </trkpt>
      <trkpt lat="46.12369" lon="6.55592">
        <ele>779</ele>
        <time>2022-06-13T14:25:01Z</time>
      </trkpt>
      <trkpt lat="46.12364" lon="6.55589">
        <ele>777</ele>
        <time>2022-06-13T14:25:04Z</time>
      </trkpt>
      <trkpt lat="46.12354" lon="6.55554">
        <ele>772</ele>
        <time>2022-06-13T14:25:17Z</time>
      </trkpt>
      <trkpt lat="46.12353" lon="6.55524">
        <ele>771</ele>
        <time>2022-06-13T14:25:28Z</time>
      </trkpt>
      <trkpt lat="46.12349" lon="6.5551">
        <ele>769</ele>
        <time>2022-06-13T14:25:33Z</time>
      </trkpt>
      <trkpt lat="46.12342" lon="6.55501">
        <ele>767</ele>
        <time>2022-06-13T14:25:38Z</time>
      </trkpt>
      <trkpt lat="46.12339" lon="6.55499">
        <ele>766</ele>
        <time>2022-06-13T14:25:39Z</time>
      </trkpt>
      <trkpt lat="46.12327" lon="6.55516">
        <ele>764</ele>
        <time>2022-06-13T14:25:48Z</time>
      </trkpt>
      <trkpt lat="46.12284" lon="6.55534">
        <ele>756</ele>
        <time>2022-06-13T14:26:10Z</time>
      </trkpt>
      <trkpt lat="46.12265" lon="6.55557">
        <ele>752</ele>
        <time>2022-06-13T14:26:22Z</time>
      </trkpt>
      <trkpt lat="46.12249" lon="6.55573">
        <ele>750</ele>
        <time>2022-06-13T14:26:32Z</time>
      </trkpt>
      <trkpt lat="46.1222" lon="6.5554">
        <ele>742</ele>
        <time>2022-06-13T14:26:51Z</time>
      </trkpt>
      <trkpt lat="46.12215" lon="6.55561">
        <ele>741</ele>
        <time>2022-06-13T14:26:58Z</time>
      </trkpt>
      <trkpt lat="46.12172" lon="6.55679">
        <ele>739</ele>
        <time>2022-06-13T14:27:45Z</time>
      </trkpt>
      <trkpt lat="46.12139" lon="6.55745">
        <ele>743</ele>
        <time>2022-06-13T14:28:13Z</time>
      </trkpt>
      <trkpt lat="46.12133" lon="6.55846">
        <ele>753</ele>
        <time>2022-06-13T14:28:48Z</time>
      </trkpt>
      <trkpt lat="46.1213" lon="6.5595">
        <ele>759</ele>
        <time>2022-06-13T14:29:24Z</time>
      </trkpt>
      <trkpt lat="46.1212" lon="6.55972">
        <ele>759</ele>
        <time>2022-06-13T14:29:33Z</time>
      </trkpt>
      <trkpt lat="46.12074" lon="6.56008">
        <ele>751</ele>
        <time>2022-06-13T14:29:59Z</time>
      </trkpt>
      <trkpt lat="46.12049" lon="6.56035">
        <ele>748</ele>
        <time>2022-06-13T14:30:15Z</time>
      </trkpt>
      <trkpt lat="46.1203" lon="6.56074">
        <ele>747</ele>
        <time>2022-06-13T14:30:32Z</time>
      </trkpt>
      <trkpt lat="46.12014" lon="6.5616">
        <ele>750</ele>
        <time>2022-06-13T14:31:02Z</time>
      </trkpt>
      <trkpt lat="46.12011" lon="6.56209">
        <ele>757</ele>
        <time>2022-06-13T14:31:19Z</time>
      </trkpt>
      <trkpt lat="46.12004" lon="6.56223">
        <ele>758</ele>
        <time>2022-06-13T14:31:25Z</time>
      </trkpt>
      <trkpt lat="46.11964" lon="6.56264">
        <ele>756</ele>
        <time>2022-06-13T14:31:50Z</time>
      </trkpt>
      <trkpt lat="46.11921" lon="6.56345">
        <ele>760</ele>
        <time>2022-06-13T14:32:25Z</time>
      </trkpt>
      <trkpt lat="46.11918" lon="6.56418">
        <ele>767</ele>
        <time>2022-06-13T14:32:51Z</time>
      </trkpt>
      <trkpt lat="46.11912" lon="6.56542">
        <ele>778</ele>
        <time>2022-06-13T14:33:34Z</time>
      </trkpt>
      <trkpt lat="46.11912" lon="6.56677">
        <ele>791</ele>
        <time>2022-06-13T14:34:21Z</time>
      </trkpt>
      <trkpt lat="46.11755" lon="6.56896">
        <ele>781</ele>
        <time>2022-06-13T14:36:10Z</time>
      </trkpt>
      <trkpt lat="46.11592" lon="6.57101">
        <ele>760</ele>
        <time>2022-06-13T14:37:58Z</time>
      </trkpt>
      <trkpt lat="46.11562" lon="6.57193">
        <ele>758</ele>
        <time>2022-06-13T14:38:33Z</time>
      </trkpt>
      <trkpt lat="46.11543" lon="6.57278">
        <ele>757</ele>
        <time>2022-06-13T14:39:04Z</time>
      </trkpt>
      <trkpt lat="46.11542" lon="6.57367">
        <ele>760</ele>
        <time>2022-06-13T14:39:35Z</time>
      </trkpt>
      <trkpt lat="46.11532" lon="6.57408">
        <ele>758</ele>
        <time>2022-06-13T14:39:50Z</time>
      </trkpt>
      <trkpt lat="46.11461" lon="6.5751">
        <ele>762</ele>
        <time>2022-06-13T14:40:41Z</time>
      </trkpt>
      <trkpt lat="46.11447" lon="6.57556">
        <ele>764</ele>
        <time>2022-06-13T14:40:58Z</time>
      </trkpt>
      <trkpt lat="46.11441" lon="6.57581">
        <ele>764</ele>
        <time>2022-06-13T14:41:07Z</time>
      </trkpt>
      <trkpt lat="46.11443" lon="6.57609">
        <ele>766</ele>
        <time>2022-06-13T14:41:17Z</time>
      </trkpt>
      <trkpt lat="46.11442" lon="6.57681">
        <ele>772</ele>
        <time>2022-06-13T14:41:42Z</time>
      </trkpt>
      <trkpt lat="46.11438" lon="6.57699">
        <ele>772</ele>
        <time>2022-06-13T14:41:48Z</time>
      </trkpt>
      <trkpt lat="46.11416" lon="6.57755">
        <ele>772</ele>
        <time>2022-06-13T14:42:11Z</time>
      </trkpt>
      <trkpt lat="46.11408" lon="6.57781">
        <ele>776</ele>
        <time>2022-06-13T14:42:21Z</time>
      </trkpt>
      <trkpt lat="46.114" lon="6.57821">
        <ele>780</ele>
        <time>2022-06-13T14:42:35Z</time>
      </trkpt>
      <trkpt lat="46.11391" lon="6.57888">
        <ele>782</ele>
        <time>2022-06-13T14:42:59Z</time>
      </trkpt>
      <trkpt lat="46.11373" lon="6.57949">
        <ele>779</ele>
        <time>2022-06-13T14:43:22Z</time>
      </trkpt>
      <trkpt lat="46.11364" lon="6.58001">
        <ele>774</ele>
        <time>2022-06-13T14:43:40Z</time>
      </trkpt>
      <trkpt lat="46.11363" lon="6.58021">
        <ele>775</ele>
        <time>2022-06-13T14:43:47Z</time>
      </trkpt>
      <trkpt lat="46.11358" lon="6.58047">
        <ele>775</ele>
        <time>2022-06-13T14:43:57Z</time>
      </trkpt>
      <trkpt lat="46.11357" lon="6.58063">
        <ele>775</ele>
        <time>2022-06-13T14:44:02Z</time>
      </trkpt>
      <trkpt lat="46.11359" lon="6.58095">
        <ele>776</ele>
        <time>2022-06-13T14:44:13Z</time>
      </trkpt>
      <trkpt lat="46.11358" lon="6.5811">
        <ele>776</ele>
        <time>2022-06-13T14:44:19Z</time>
      </trkpt>
      <trkpt lat="46.11341" lon="6.58174">
        <ele>769</ele>
        <time>2022-06-13T14:44:42Z</time>
      </trkpt>
      <trkpt lat="46.11337" lon="6.58198">
        <ele>768</ele>
        <time>2022-06-13T14:44:51Z</time>
      </trkpt>
      <trkpt lat="46.11331" lon="6.58236">
        <ele>767</ele>
        <time>2022-06-13T14:45:05Z</time>
      </trkpt>
      <trkpt lat="46.11326" lon="6.58248">
        <ele>767</ele>
        <time>2022-06-13T14:45:09Z</time>
      </trkpt>
      <trkpt lat="46.11322" lon="6.58274">
        <ele>768</ele>
        <time>2022-06-13T14:45:19Z</time>
      </trkpt>
      <trkpt lat="46.11322" lon="6.5832">
        <ele>771</ele>
        <time>2022-06-13T14:45:35Z</time>
      </trkpt>
      <trkpt lat="46.11333" lon="6.58351">
        <ele>776</ele>
        <time>2022-06-13T14:45:47Z</time>
      </trkpt>
      <trkpt lat="46.11341" lon="6.58389">
        <ele>780</ele>
        <time>2022-06-13T14:46:00Z</time>
      </trkpt>
      <trkpt lat="46.11351" lon="6.58485">
        <ele>786</ele>
        <time>2022-06-13T14:46:34Z</time>
      </trkpt>
      <trkpt lat="46.11351" lon="6.58511">
        <ele>787</ele>
        <time>2022-06-13T14:46:43Z</time>
      </trkpt>
      <trkpt lat="46.11349" lon="6.58539">
        <ele>787</ele>
        <time>2022-06-13T14:46:53Z</time>
      </trkpt>
      <trkpt lat="46.11345" lon="6.58575">
        <ele>787</ele>
        <time>2022-06-13T14:47:06Z</time>
      </trkpt>
      <trkpt lat="46.11348" lon="6.5861">
        <ele>788</ele>
        <time>2022-06-13T14:47:18Z</time>
      </trkpt>
      <trkpt lat="46.11356" lon="6.58658">
        <ele>792</ele>
        <time>2022-06-13T14:47:35Z</time>
      </trkpt>
      <trkpt lat="46.11369" lon="6.58711">
        <ele>797</ele>
        <time>2022-06-13T14:47:54Z</time>
      </trkpt>
      <trkpt lat="46.11372" lon="6.58766">
        <ele>794</ele>
        <time>2022-06-13T14:48:14Z</time>
      </trkpt>
      <trkpt lat="46.11371" lon="6.58797">
        <ele>790</ele>
        <time>2022-06-13T14:48:24Z</time>
      </trkpt>
      <trkpt lat="46.11363" lon="6.58846">
        <ele>780</ele>
        <time>2022-06-13T14:48:42Z</time>
      </trkpt>
      <trkpt lat="46.1136" lon="6.58855">
        <ele>777</ele>
        <time>2022-06-13T14:48:45Z</time>
      </trkpt>
      <trkpt lat="46.11359" lon="6.5886">
        <ele>776</ele>
        <time>2022-06-13T14:48:47Z</time>
      </trkpt>
      <trkpt lat="46.1136" lon="6.58865">
        <ele>776</ele>
        <time>2022-06-13T14:48:49Z</time>
      </trkpt>
      <trkpt lat="46.11381" lon="6.58894">
        <ele>782</ele>
        <time>2022-06-13T14:49:03Z</time>
      </trkpt>
      <trkpt lat="46.11386" lon="6.58904">
        <ele>783</ele>
        <time>2022-06-13T14:49:08Z</time>
      </trkpt>
      <trkpt lat="46.11398" lon="6.58953">
        <ele>782</ele>
        <time>2022-06-13T14:49:26Z</time>
      </trkpt>
      <trkpt lat="46.11401" lon="6.58975">
        <ele>780</ele>
        <time>2022-06-13T14:49:33Z</time>
      </trkpt>
      <trkpt lat="46.11409" lon="6.59002">
        <ele>780</ele>
        <time>2022-06-13T14:49:44Z</time>
      </trkpt>
      <trkpt lat="46.1141" lon="6.59011">
        <ele>780</ele>
        <time>2022-06-13T14:49:47Z</time>
      </trkpt>
      <trkpt lat="46.11409" lon="6.59018">
        <ele>780</ele>
        <time>2022-06-13T14:49:49Z</time>
      </trkpt>
      <trkpt lat="46.11393" lon="6.59028">
        <ele>774</ele>
        <time>2022-06-13T14:49:58Z</time>
      </trkpt>
      <trkpt lat="46.1138" lon="6.59033">
        <ele>769</ele>
        <time>2022-06-13T14:50:05Z</time>
      </trkpt>
      <trkpt lat="46.1136" lon="6.59031">
        <ele>761</ele>
        <time>2022-06-13T14:50:15Z</time>
      </trkpt>
      <trkpt lat="46.11355" lon="6.59036">
        <ele>760</ele>
        <time>2022-06-13T14:50:18Z</time>
      </trkpt>
      <trkpt lat="46.11321" lon="6.59045">
        <ele>749</ele>
        <time>2022-06-13T14:50:35Z</time>
      </trkpt>
      <trkpt lat="46.1129" lon="6.59019">
        <ele>739</ele>
        <time>2022-06-13T14:50:53Z</time>
      </trkpt>
      <trkpt lat="46.11272" lon="6.59013">
        <ele>733</ele>
        <time>2022-06-13T14:51:02Z</time>
      </trkpt>
      <trkpt lat="46.11253" lon="6.59003">
        <ele>727</ele>
        <time>2022-06-13T14:51:12Z</time>
      </trkpt>
      <trkpt lat="46.11232" lon="6.58996">
        <ele>722</ele>
        <time>2022-06-13T14:51:23Z</time>
      </trkpt>
      <trkpt lat="46.11231" lon="6.59007">
        <ele>722</ele>
        <time>2022-06-13T14:51:27Z</time>
      </trkpt>
      <trkpt lat="46.11207" lon="6.59011">
        <ele>716</ele>
        <time>2022-06-13T14:51:39Z</time>
      </trkpt>
      <trkpt lat="46.11189" lon="6.58996">
        <ele>712</ele>
        <time>2022-06-13T14:51:50Z</time>
      </trkpt>
      <trkpt lat="46.11185" lon="6.58989">
        <ele>712</ele>
        <time>2022-06-13T14:51:53Z</time>
      </trkpt>
      <trkpt lat="46.11176" lon="6.5898">
        <ele>711</ele>
        <time>2022-06-13T14:51:58Z</time>
      </trkpt>
      <trkpt lat="46.11171" lon="6.58979">
        <ele>710</ele>
        <time>2022-06-13T14:52:01Z</time>
      </trkpt>
      <trkpt lat="46.11159" lon="6.5898">
        <ele>707</ele>
        <time>2022-06-13T14:52:07Z</time>
      </trkpt>
      <trkpt lat="46.11153" lon="6.58983">
        <ele>705</ele>
        <time>2022-06-13T14:52:10Z</time>
      </trkpt>
      <trkpt lat="46.11139" lon="6.58982">
        <ele>702</ele>
        <time>2022-06-13T14:52:17Z</time>
      </trkpt>
      <trkpt lat="46.11122" lon="6.58988">
        <ele>697</ele>
        <time>2022-06-13T14:52:26Z</time>
      </trkpt>
      <trkpt lat="46.11111" lon="6.59007">
        <ele>693</ele>
        <time>2022-06-13T14:52:34Z</time>
      </trkpt>
      <trkpt lat="46.11104" lon="6.59012">
        <ele>691</ele>
        <time>2022-06-13T14:52:38Z</time>
      </trkpt>
      <trkpt lat="46.11088" lon="6.59018">
        <ele>687</ele>
        <time>2022-06-13T14:52:46Z</time>
      </trkpt>
      <trkpt lat="46.11068" lon="6.59033">
        <ele>682</ele>
        <time>2022-06-13T14:52:58Z</time>
      </trkpt>
      <trkpt lat="46.11045" lon="6.59073">
        <ele>676</ele>
        <time>2022-06-13T14:53:16Z</time>
      </trkpt>
      <trkpt lat="46.11044" lon="6.59076">
        <ele>676</ele>
        <time>2022-06-13T14:53:17Z</time>
      </trkpt>
      <trkpt lat="46.11035" lon="6.59074">
        <ele>674</ele>
        <time>2022-06-13T14:53:21Z</time>
      </trkpt>
      <trkpt lat="46.11034" lon="6.59083">
        <ele>674</ele>
        <time>2022-06-13T14:53:25Z</time>
      </trkpt>
      <trkpt lat="46.11038" lon="6.59094">
        <ele>673</ele>
        <time>2022-06-13T14:53:29Z</time>
      </trkpt>
      <trkpt lat="46.11037" lon="6.59098">
        <ele>672</ele>
        <time>2022-06-13T14:53:30Z</time>
      </trkpt>
      <trkpt lat="46.11035" lon="6.59102">
        <ele>671</ele>
        <time>2022-06-13T14:53:32Z</time>
      </trkpt>
      <trkpt lat="46.11026" lon="6.59108">
        <ele>669</ele>
        <time>2022-06-13T14:53:37Z</time>
      </trkpt>
      <trkpt lat="46.10985" lon="6.59122">
        <ele>661</ele>
        <time>2022-06-13T14:53:58Z</time>
      </trkpt>
      <trkpt lat="46.10971" lon="6.5912">
        <ele>659</ele>
        <time>2022-06-13T14:54:05Z</time>
      </trkpt>
      <trkpt lat="46.10968" lon="6.59119">
        <ele>659</ele>
        <time>2022-06-13T14:54:07Z</time>
      </trkpt>
      <trkpt lat="46.10952" lon="6.59124">
        <ele>657</ele>
        <time>2022-06-13T14:54:15Z</time>
      </trkpt>
      <trkpt lat="46.10935" lon="6.59131">
        <ele>654</ele>
        <time>2022-06-13T14:54:24Z</time>
      </trkpt>
      <trkpt lat="46.10934" lon="6.59131">
        <ele>654</ele>
        <time>2022-06-13T14:54:24Z</time>
      </trkpt>
      <trkpt lat="46.10922" lon="6.59117">
        <ele>653</ele>
        <time>2022-06-13T14:54:32Z</time>
      </trkpt>
      <trkpt lat="46.10918" lon="6.59109">
        <ele>652</ele>
        <time>2022-06-13T14:54:35Z</time>
      </trkpt>
      <trkpt lat="46.10907" lon="6.59086">
        <ele>652</ele>
        <time>2022-06-13T14:54:45Z</time>
      </trkpt>
      <trkpt lat="46.10903" lon="6.5908">
        <ele>652</ele>
        <time>2022-06-13T14:54:48Z</time>
      </trkpt>
      <trkpt lat="46.1089" lon="6.59069">
        <ele>652</ele>
        <time>2022-06-13T14:54:56Z</time>
      </trkpt>
      <trkpt lat="46.1088" lon="6.59064">
        <ele>651</ele>
        <time>2022-06-13T14:55:01Z</time>
      </trkpt>
      <trkpt lat="46.10851" lon="6.59052">
        <ele>649</ele>
        <time>2022-06-13T14:55:16Z</time>
      </trkpt>
      <trkpt lat="46.10797" lon="6.59035">
        <ele>646</ele>
        <time>2022-06-13T14:55:44Z</time>
      </trkpt>
      <trkpt lat="46.10797" lon="6.59041">
        <ele>646</ele>
        <time>2022-06-13T14:55:46Z</time>
      </trkpt>
      <trkpt lat="46.10689" lon="6.59018">
        <ele>641</ele>
        <time>2022-06-13T14:56:40Z</time>
      </trkpt>
      <trkpt lat="46.10652" lon="6.5901">
        <ele>640</ele>
        <time>2022-06-13T14:56:59Z</time>
      </trkpt>
      <trkpt lat="46.10646" lon="6.5901">
        <ele>640</ele>
        <time>2022-06-13T14:57:02Z</time>
      </trkpt>
      <trkpt lat="46.10633" lon="6.59017">
        <ele>640</ele>
        <time>2022-06-13T14:57:09Z</time>
      </trkpt>
      <trkpt lat="46.10612" lon="6.58972">
        <ele>640</ele>
        <time>2022-06-13T14:57:28Z</time>
      </trkpt>
      <trkpt lat="46.10559" lon="6.58953">
        <ele>639</ele>
        <time>2022-06-13T14:57:55Z</time>
      </trkpt>
      <trkpt lat="46.10549" lon="6.58957">
        <ele>639</ele>
        <time>2022-06-13T14:58:00Z</time>
      </trkpt>
      <trkpt lat="46.10554" lon="6.58975">
        <ele>638</ele>
        <time>2022-06-13T14:58:07Z</time>
      </trkpt>
      <trkpt lat="46.1055" lon="6.58971">
        <ele>638</ele>
        <time>2022-06-13T14:58:10Z</time>
      </trkpt>
      <trkpt lat="46.10545" lon="6.58978">
        <ele>638</ele>
        <time>2022-06-13T14:58:13Z</time>
      </trkpt>
      <trkpt lat="46.10539" lon="6.58972">
        <ele>638</ele>
        <time>2022-06-13T14:58:17Z</time>
      </trkpt>
      <trkpt lat="46.10523" lon="6.58939">
        <ele>639</ele>
        <time>2022-06-13T14:58:31Z</time>
      </trkpt>
      <trkpt lat="46.10504" lon="6.58924">
        <ele>639</ele>
        <time>2022-06-13T14:58:41Z</time>
      </trkpt>
      <trkpt lat="46.10465" lon="6.58868">
        <ele>639</ele>
        <time>2022-06-13T14:59:09Z</time>
      </trkpt>
      <trkpt lat="46.10449" lon="6.58852">
        <ele>638</ele>
        <time>2022-06-13T14:59:19Z</time>
      </trkpt>
      <trkpt lat="46.1043" lon="6.58852">
        <ele>638</ele>
        <time>2022-06-13T14:59:28Z</time>
      </trkpt>
      <trkpt lat="46.10405" lon="6.58846">
        <ele>637</ele>
        <time>2022-06-13T14:59:41Z</time>
      </trkpt>
      <trkpt lat="46.10383" lon="6.58829">
        <ele>637</ele>
        <time>2022-06-13T14:59:53Z</time>
      </trkpt>
      <trkpt lat="46.10354" lon="6.58819">
        <ele>636</ele>
        <time>2022-06-13T15:00:08Z</time>
      </trkpt>
      <trkpt lat="46.10325" lon="6.58814">
        <ele>636</ele>
        <time>2022-06-13T15:00:23Z</time>
      </trkpt>
      <trkpt lat="46.10312" lon="6.58799">
        <ele>635</ele>
        <time>2022-06-13T15:00:31Z</time>
      </trkpt>
      <trkpt lat="46.10305" lon="6.58776">
        <ele>635</ele>
        <time>2022-06-13T15:00:40Z</time>
      </trkpt>
      <trkpt lat="46.10298" lon="6.58735">
        <ele>635</ele>
        <time>2022-06-13T15:00:55Z</time>
      </trkpt>
      <trkpt lat="46.10251" lon="6.587">
        <ele>633</ele>
        <time>2022-06-13T15:01:21Z</time>
      </trkpt>
      <trkpt lat="46.1023" lon="6.5867">
        <ele>631</ele>
        <time>2022-06-13T15:01:36Z</time>
      </trkpt>
      <trkpt lat="46.10221" lon="6.58656">
        <ele>631</ele>
        <time>2022-06-13T15:01:43Z</time>
      </trkpt>
      <trkpt lat="46.1016" lon="6.58618">
        <ele>628</ele>
        <time>2022-06-13T15:02:16Z</time>
      </trkpt>
      <trkpt lat="46.1013" lon="6.58574">
        <ele>628</ele>
        <time>2022-06-13T15:02:37Z</time>
      </trkpt>
      <trkpt lat="46.10128" lon="6.58575">
        <ele>628</ele>
        <time>2022-06-13T15:02:38Z</time>
      </trkpt>
      <trkpt lat="46.10119" lon="6.58578">
        <ele>627</ele>
        <time>2022-06-13T15:02:43Z</time>
      </trkpt>
      <trkpt lat="46.10098" lon="6.58619">
        <ele>627</ele>
        <time>2022-06-13T15:03:01Z</time>
      </trkpt>
      <trkpt lat="46.10098" lon="6.58621">
        <ele>627</ele>
        <time>2022-06-13T15:03:01Z</time>
      </trkpt>
      <trkpt lat="46.10082" lon="6.58615">
        <ele>627</ele>
        <time>2022-06-13T15:03:10Z</time>
      </trkpt>
      <trkpt lat="46.10037" lon="6.58616">
        <ele>626</ele>
        <time>2022-06-13T15:03:32Z</time>
      </trkpt>
      <trkpt lat="46.09943" lon="6.58608">
        <ele>625</ele>
        <time>2022-06-13T15:04:19Z</time>
      </trkpt>
      <trkpt lat="46.0992" lon="6.5864">
        <ele>625</ele>
        <time>2022-06-13T15:04:35Z</time>
      </trkpt>
      <trkpt lat="46.09912" lon="6.58678">
        <ele>625</ele>
        <time>2022-06-13T15:04:49Z</time>
      </trkpt>
      <trkpt lat="46.09902" lon="6.58722">
        <ele>624</ele>
        <time>2022-06-13T15:05:05Z</time>
      </trkpt>
      <trkpt lat="46.09897" lon="6.58757">
        <ele>624</ele>
        <time>2022-06-13T15:05:17Z</time>
      </trkpt>
      <trkpt lat="46.09902" lon="6.58767">
        <ele>624</ele>
        <time>2022-06-13T15:05:22Z</time>
      </trkpt>
      <trkpt lat="46.0991" lon="6.58802">
        <ele>624</ele>
        <time>2022-06-13T15:05:35Z</time>
      </trkpt>
      <trkpt lat="46.09908" lon="6.5881">
        <ele>624</ele>
        <time>2022-06-13T15:05:37Z</time>
      </trkpt>
      <trkpt lat="46.09902" lon="6.58815">
        <ele>624</ele>
        <time>2022-06-13T15:05:41Z</time>
      </trkpt>
      <trkpt lat="46.09894" lon="6.58819">
        <ele>624</ele>
        <time>2022-06-13T15:05:45Z</time>
      </trkpt>
      <trkpt lat="46.0989" lon="6.58835">
        <ele>624</ele>
        <time>2022-06-13T15:05:51Z</time>
      </trkpt>
      <trkpt lat="46.09884" lon="6.58887">
        <ele>623</ele>
        <time>2022-06-13T15:06:09Z</time>
      </trkpt>
    </trkseg>
  </trk>
</gpx>